createdAt,value
2022-10-24T00:00:44.196Z,97695.13
2022-10-24T00:03:10.427Z,97694.72
2022-10-24T00:05:36.620Z,97691.44
2022-10-24T00:08:02.730Z,97695.38
2022-10-24T00:10:28.827Z,97678.31
2022-10-24T00:12:54.941Z,97681.22
2022-10-24T00:15:21.046Z,97666.00
2022-10-24T00:17:47.151Z,97665.19
2022-10-24T00:20:13.286Z,97651.59
2022-10-24T00:22:39.386Z,97666.38
2022-10-24T00:25:05.484Z,97666.97
2022-10-24T00:27:32.099Z,97658.75
2022-10-24T00:29:58.183Z,97659.34
2022-10-24T00:32:24.272Z,97659.94
2022-10-24T00:34:50.382Z,97652.75
2022-10-24T00:37:17.074Z,97644.34
2022-10-24T00:39:43.202Z,97652.75
2022-10-24T00:42:09.328Z,97637.06
2022-10-24T00:44:35.432Z,97639.53
2022-10-24T00:47:01.759Z,97629.88
2022-10-24T00:49:27.875Z,97633.16
2022-10-24T00:51:53.953Z,97637.47
2022-10-24T00:54:20.042Z,97622.25
2022-10-24T00:56:46.264Z,97625.31
2022-10-24T00:59:12.360Z,97636.38
2022-10-24T01:01:38.755Z,97626.22
2022-10-24T01:04:04.912Z,97609.75
2022-10-24T01:06:30.998Z,97631.72
2022-10-24T01:08:57.177Z,97625.31
2022-10-24T01:11:23.289Z,97624.44
2022-10-24T01:13:49.380Z,97614.91
2022-10-24T01:16:15.634Z,97620.25
2022-10-24T01:18:41.828Z,97611.56
2022-10-24T01:21:08.211Z,97624.91
2022-10-24T01:23:34.337Z,97615.28
2022-10-24T01:26:00.928Z,97615.28
2022-10-24T01:28:27.101Z,97632.13
2022-10-24T01:30:53.194Z,97629.66
2022-10-24T01:33:19.347Z,97632.13
2022-10-24T01:35:45.439Z,97621.91
2022-10-24T01:38:11.564Z,97611.41
2022-10-24T01:40:37.667Z,97618.63
2022-10-24T01:43:03.750Z,97611.06
2022-10-24T01:45:29.848Z,97618.50
2022-10-24T01:47:55.959Z,97610.00
2022-10-24T01:50:22.055Z,97595.25
2022-10-24T01:52:48.181Z,97593.63
2022-10-24T01:55:14.358Z,97601.66
2022-10-24T01:57:40.460Z,97576.19
2022-10-24T02:00:06.558Z,97587.09
2022-10-24T02:02:32.665Z,97581.97
2022-10-24T02:04:58.755Z,97573.81
2022-10-24T02:07:24.850Z,97575.69
2022-10-24T02:09:50.963Z,97581.03
2022-10-24T02:12:17.064Z,97568.34
2022-10-24T02:14:43.152Z,97573.31
2022-10-24T02:17:09.266Z,97562.84
2022-10-24T02:19:35.362Z,97570.06
2022-10-24T02:22:01.454Z,97558.91
2022-10-24T02:24:27.573Z,97551.72
2022-10-24T02:26:53.672Z,97542.09
2022-10-24T02:29:19.757Z,97543.47
2022-10-24T02:31:46.384Z,97549.78
2022-10-24T02:36:43.489Z,97551.56
2022-10-24T02:39:09.636Z,97544.34
2022-10-24T02:41:35.720Z,97548.88
2022-10-24T02:44:01.814Z,97549.69
2022-10-24T02:46:27.935Z,97543.53
2022-10-24T02:48:54.022Z,97539.81
2022-10-24T02:51:20.120Z,97536.34
2022-10-24T02:53:46.220Z,97547.03
2022-10-24T02:56:12.313Z,97538.19
2022-10-24T02:58:38.409Z,97529.94
2022-10-24T03:01:04.598Z,97532.41
2022-10-24T03:03:30.791Z,97537.94
2022-10-24T03:05:56.890Z,97528.53
2022-10-24T03:08:22.998Z,97517.25
2022-10-24T03:10:49.078Z,97542.69
2022-10-24T03:13:15.164Z,97548.88
2022-10-24T03:15:41.323Z,97549.31
2022-10-24T03:18:07.469Z,97543.16
2022-10-24T03:20:33.548Z,97533.88
2022-10-24T03:22:59.665Z,97539.69
2022-10-24T03:25:25.746Z,97543.41
2022-10-24T03:27:51.846Z,97553.50
2022-10-24T03:30:18.024Z,97542.81
2022-10-24T03:32:44.386Z,97541.97
2022-10-24T03:35:13.325Z,97543.84
2022-10-24T03:37:40.465Z,97535.47
2022-10-24T03:40:06.555Z,97529.66
2022-10-24T03:42:32.651Z,97528.25
2022-10-24T03:44:58.760Z,97524.19
2022-10-24T03:47:24.854Z,97516.19
2022-10-24T03:49:50.953Z,97542.09
2022-10-24T03:52:17.065Z,97542.28
2022-10-24T03:54:43.156Z,97539.63
2022-10-24T03:57:09.277Z,97540.84
2022-10-24T03:59:35.395Z,97533.91
2022-10-24T04:02:01.587Z,97535.97
2022-10-24T04:04:27.762Z,97543.75
2022-10-24T04:06:53.868Z,97527.38
2022-10-24T04:09:19.958Z,97536.66
2022-10-24T04:11:46.037Z,97524.91
2022-10-24T04:14:12.136Z,97531.06
2022-10-24T04:16:38.238Z,97535.59
2022-10-24T04:19:04.352Z,97543.59
2022-10-24T04:21:30.475Z,97539.06
2022-10-24T04:23:56.585Z,97555.09
2022-10-24T04:26:23.540Z,97541.75
2022-10-24T04:28:49.650Z,97555.34
2022-10-24T04:31:18.165Z,97555.94
2022-10-24T04:33:47.127Z,97552.44
2022-10-24T04:36:13.592Z,97563.94
2022-10-24T04:38:39.677Z,97556.75
2022-10-24T04:41:07.382Z,97541.75
2022-10-24T04:43:36.067Z,97554.66
2022-10-24T04:46:02.156Z,97515.03
2022-10-24T04:48:28.249Z,97535.97
2022-10-24T04:50:54.348Z,97523.88
2022-10-24T04:53:20.449Z,97524.47
2022-10-24T04:55:46.536Z,97527.59
2022-10-24T04:58:12.666Z,97536.41
2022-10-24T05:00:38.789Z,97536.41
2022-10-24T05:03:04.878Z,97535.38
2022-10-24T05:05:31.004Z,97528.19
2022-10-24T05:07:57.099Z,97549.75
2022-10-24T05:10:23.193Z,97525.28
2022-10-24T05:12:49.396Z,97534.56
2022-10-24T05:15:15.557Z,97534.31
2022-10-24T05:17:41.657Z,97532.66
2022-10-24T05:20:07.763Z,97547.09
2022-10-24T05:22:33.868Z,97544.41
2022-10-24T05:24:59.961Z,97539.06
2022-10-24T05:27:26.566Z,97536.84
2022-10-24T05:29:52.665Z,97522.69
2022-10-24T05:32:18.755Z,97535.84
2022-10-24T05:34:44.878Z,97530.50
2022-10-24T05:37:11.064Z,97530.72
2022-10-24T05:39:37.262Z,97535.00
2022-10-24T05:42:03.659Z,97529.66
2022-10-24T05:44:29.760Z,97539.31
2022-10-24T05:46:55.861Z,97531.50
2022-10-24T05:49:21.981Z,97530.50
2022-10-24T05:51:48.071Z,97541.38
2022-10-24T05:54:14.195Z,97542.44
2022-10-24T05:56:40.359Z,97525.81
2022-10-24T05:59:06.449Z,97535.09
2022-10-24T06:01:32.634Z,97564.47
2022-10-24T06:03:58.788Z,97550.53
2022-10-24T06:06:24.894Z,97542.72
2022-10-24T06:08:50.984Z,97536.38
2022-10-24T06:11:17.128Z,97544.00
2022-10-24T06:13:43.227Z,97552.22
2022-10-24T06:16:09.332Z,97548.72
2022-10-24T06:18:35.440Z,97550.13
2022-10-24T06:21:01.525Z,97559.19
2022-10-24T06:23:27.632Z,97556.16
2022-10-24T06:25:53.756Z,97564.53
2022-10-24T06:28:19.841Z,97567.22
2022-10-24T06:30:45.935Z,97574.16
2022-10-24T06:33:12.042Z,97557.56
2022-10-24T06:35:38.137Z,97566.53
2022-10-24T06:38:04.231Z,97577.44
2022-10-24T06:40:30.629Z,97581.75
2022-10-24T06:42:56.734Z,97580.91
2022-10-24T06:45:22.816Z,97596.94
2022-10-24T06:47:51.907Z,97577.22
2022-10-24T06:50:20.188Z,97583.38
2022-10-24T06:52:46.285Z,97580.50
2022-10-24T06:55:12.414Z,97586.19
2022-10-24T06:57:38.500Z,97586.66
2022-10-24T07:00:04.624Z,97598.13
2022-10-24T07:02:30.839Z,97604.88
2022-10-24T07:04:57.054Z,97610.22
2022-10-24T07:07:23.206Z,97610.44
2022-10-24T07:09:49.317Z,97614.16
2022-10-24T07:12:15.453Z,97613.69
2022-10-24T07:14:41.592Z,97623.13
2022-10-24T07:17:07.724Z,97628.09
2022-10-24T07:19:37.187Z,97627.66
2022-10-24T07:22:03.599Z,97626.84
2022-10-24T07:24:29.713Z,97630.06
2022-10-24T07:26:55.817Z,97635.59
2022-10-24T07:29:21.919Z,97619.38
2022-10-24T07:31:48.522Z,97620.38
2022-10-24T07:34:14.690Z,97610.94
2022-10-24T07:36:43.830Z,97619.09
2022-10-24T07:39:10.177Z,97624.72
2022-10-24T07:41:36.269Z,97625.91
2022-10-24T07:44:02.373Z,97628.44
2022-10-24T07:46:28.501Z,97618.78
2022-10-24T07:48:54.598Z,97625.69
2022-10-24T07:51:20.696Z,97612.56
2022-10-24T07:53:46.821Z,97627.78
2022-10-24T07:56:12.917Z,97618.03
2022-10-24T07:58:39.007Z,97610.00
2022-10-24T08:01:05.138Z,97605.72
2022-10-24T08:03:31.286Z,97625.25
2022-10-24T08:05:57.363Z,97633.19
2022-10-24T08:08:39.200Z,97619.56
2022-10-24T08:11:05.612Z,97627.38
2022-10-24T08:13:31.764Z,97638.06
2022-10-24T08:15:57.863Z,97646.75
2022-10-24T08:18:23.952Z,97647.56
2022-10-24T08:20:50.045Z,97664.19
2022-10-24T08:23:16.188Z,97654.31
2022-10-24T08:25:42.284Z,97664.34
2022-10-24T08:28:09.263Z,97652.97
2022-10-24T08:30:35.464Z,97664.41
2022-10-24T08:33:01.561Z,97657.50
2022-10-24T08:35:27.706Z,97662.19
2022-10-24T08:37:53.811Z,97676.75
2022-10-24T08:40:19.903Z,97677.97
2022-10-24T08:42:46.313Z,97678.09
2022-10-24T08:45:12.560Z,97681.75
2022-10-24T08:47:41.621Z,97681.94
2022-10-24T08:50:08.067Z,97677.13
2022-10-24T08:52:34.165Z,97666.50
2022-10-24T08:55:04.667Z,97671.47
2022-10-24T09:00:03.463Z,97676.78
2022-10-24T09:02:29.665Z,97674.56
2022-10-24T09:04:55.878Z,97659.78
2022-10-24T09:07:22.117Z,97649.78
2022-10-24T09:09:48.244Z,97656.66
2022-10-24T09:12:14.357Z,97671.69
2022-10-24T09:14:40.459Z,97657.50
2022-10-24T09:17:06.580Z,97654.97
2022-10-24T09:19:32.730Z,97674.13
2022-10-24T09:21:58.817Z,97684.38
2022-10-24T09:24:24.915Z,97661.66
2022-10-24T09:26:51.025Z,97681.78
2022-10-24T09:29:17.120Z,97676.94
2022-10-24T09:31:43.208Z,97684.16
2022-10-24T09:34:09.333Z,97668.09
2022-10-24T09:36:35.478Z,97685.34
2022-10-24T09:39:01.566Z,97698.03
2022-10-24T09:41:27.724Z,97687.28
2022-10-24T09:43:53.841Z,97697.22
2022-10-24T09:46:19.930Z,97694.41
2022-10-24T09:48:46.024Z,97697.13
2022-10-24T09:51:12.131Z,97688.03
2022-10-24T09:53:38.218Z,97703.25
2022-10-24T09:56:04.328Z,97709.06
2022-10-24T09:58:30.422Z,97715.25
2022-10-24T10:00:56.902Z,97709.19
2022-10-24T10:03:23.970Z,97721.38
2022-10-24T10:05:50.452Z,97734.06
2022-10-24T10:08:16.536Z,97724.28
2022-10-24T10:10:42.647Z,97719.28
2022-10-24T10:13:08.749Z,97711.72
2022-10-24T10:15:34.841Z,97723.34
2022-10-24T10:18:00.951Z,97722.03
2022-10-24T10:20:27.041Z,97727.41
2022-10-24T10:22:53.146Z,97718.53
2022-10-24T10:25:19.271Z,97726.47
2022-10-24T10:27:45.623Z,97723.81
2022-10-24T10:30:11.877Z,97731.88
2022-10-24T10:32:37.990Z,97737.44
2022-10-24T10:35:04.096Z,97732.50
2022-10-24T10:37:30.190Z,97744.63
2022-10-24T10:39:56.284Z,97739.41
2022-10-24T10:42:22.363Z,97746.69
2022-10-24T10:44:48.469Z,97742.75
2022-10-24T10:47:14.579Z,97744.69
2022-10-24T10:49:40.680Z,97753.84
2022-10-24T10:52:06.793Z,97748.91
2022-10-24T10:54:32.913Z,97760.28
2022-10-24T10:56:59.004Z,97755.78
2022-10-24T10:59:28.535Z,97754.50
2022-10-24T11:01:55.751Z,97761.34
2022-10-24T11:04:21.987Z,97766.53
2022-10-24T11:06:48.149Z,97769.06
2022-10-24T11:09:14.269Z,97761.03
2022-10-24T11:11:40.363Z,97775.19
2022-10-24T11:14:06.445Z,97753.91
2022-10-24T11:16:32.554Z,97776.13
2022-10-24T11:18:58.665Z,97778.78
2022-10-24T11:21:24.758Z,97781.94
2022-10-24T11:23:50.869Z,97766.69
2022-10-24T11:26:16.981Z,97780.38
2022-10-24T11:28:43.083Z,97779.88
2022-10-24T11:31:09.223Z,97786.03
2022-10-24T11:33:35.314Z,97786.03
2022-10-24T11:36:01.417Z,97790.63
2022-10-24T11:38:27.512Z,97792.03
2022-10-24T11:40:54.906Z,97793.81
2022-10-24T11:43:24.629Z,97796.50
2022-10-24T11:45:50.914Z,97780.75
2022-10-24T11:48:17.028Z,97794.03
2022-10-24T11:50:43.108Z,97791.94
2022-10-24T11:53:09.215Z,97800.78
2022-10-24T11:55:35.307Z,97795.03
2022-10-24T11:58:01.400Z,97797.03
2022-10-24T12:00:27.512Z,97802.06
2022-10-24T12:02:53.636Z,97797.25
2022-10-24T12:05:26.090Z,97799.59
2022-10-24T12:07:52.220Z,97803.94
2022-10-24T12:10:18.316Z,97804.75
2022-10-24T12:12:44.421Z,97805.03
2022-10-24T12:15:10.536Z,97804.91
2022-10-24T12:17:36.628Z,97798.50
2022-10-24T12:20:02.732Z,97802.94
2022-10-24T12:22:28.859Z,97808.88
2022-10-24T12:24:54.955Z,97803.03
2022-10-24T12:27:21.046Z,97813.97
2022-10-24T12:29:47.165Z,97797.13
2022-10-24T12:32:13.259Z,97800.41
2022-10-24T12:34:39.360Z,97798.56
2022-10-24T12:37:05.470Z,97803.31
2022-10-24T12:39:31.566Z,97795.47
2022-10-24T12:41:57.670Z,97799.22
2022-10-24T12:44:24.145Z,97797.47
2022-10-24T12:46:50.232Z,97802.03
2022-10-24T12:49:16.316Z,97800.78
2022-10-24T12:51:42.452Z,97794.03
2022-10-24T12:54:08.533Z,97797.75
2022-10-24T12:56:34.618Z,97792.25
2022-10-24T12:59:01.236Z,97797.16
2022-10-24T13:01:27.571Z,97792.03
2022-10-24T13:03:53.798Z,97795.84
2022-10-24T13:06:20.440Z,97791.69
2022-10-24T13:08:46.577Z,97794.75
2022-10-24T13:11:12.664Z,97790.34
2022-10-24T13:13:38.782Z,97788.56
2022-10-24T13:16:04.892Z,97799.31
2022-10-24T13:18:30.992Z,97811.84
2022-10-24T13:20:57.100Z,97802.88
2022-10-24T13:23:23.179Z,97804.44
2022-10-24T13:25:49.275Z,97809.44
2022-10-24T13:28:15.394Z,97806.44
2022-10-24T13:30:43.737Z,97800.47
2022-10-24T13:33:12.100Z,97796.06
2022-10-24T13:35:38.226Z,97806.03
2022-10-24T13:38:07.709Z,97802.28
2022-10-24T13:40:33.980Z,97808.38
2022-10-24T13:43:00.125Z,97809.44
2022-10-24T13:45:26.222Z,97789.59
2022-10-24T13:47:52.309Z,97808.59
2022-10-24T13:50:18.431Z,97804.44
2022-10-24T13:52:48.946Z,97804.38
2022-10-24T13:55:15.525Z,97800.28
2022-10-24T13:57:41.656Z,97809.56
2022-10-24T14:00:07.755Z,97791.44
2022-10-24T14:02:33.927Z,97815.66
2022-10-24T14:05:00.068Z,97803.19
2022-10-24T14:07:26.160Z,97814.28
2022-10-24T14:09:52.299Z,97814.25
2022-10-24T14:12:18.947Z,97816.34
2022-10-24T14:14:45.074Z,97818.63
2022-10-24T14:17:11.168Z,97813.97
2022-10-24T14:19:38.766Z,97805.56
2022-10-24T14:22:05.292Z,97809.28
2022-10-24T14:24:31.386Z,97807.78
2022-10-24T14:26:57.488Z,97795.38
2022-10-24T14:29:23.578Z,97808.53
2022-10-24T14:31:49.667Z,97797.25
2022-10-24T14:34:15.780Z,97800.38
2022-10-24T14:36:41.872Z,97809.94
2022-10-24T14:39:07.967Z,97796.22
2022-10-24T14:41:34.167Z,97813.75
2022-10-24T14:44:00.276Z,97810.25
2022-10-24T14:46:26.373Z,97805.25
2022-10-24T14:48:52.783Z,97812.69
2022-10-24T14:51:18.889Z,97812.69
2022-10-24T14:53:45.032Z,97819.56
2022-10-24T14:56:11.152Z,97817.16
2022-10-24T14:58:37.255Z,97828.09
2022-10-24T15:01:03.396Z,97835.72
2022-10-24T15:03:29.536Z,97826.69
2022-10-24T15:05:55.631Z,97828.59
2022-10-24T15:08:23.008Z,97842.78
2022-10-24T15:10:49.486Z,97839.72
2022-10-24T15:13:15.594Z,97840.25
2022-10-24T15:15:41.692Z,97842.41
2022-10-24T15:18:07.805Z,97833.44
2022-10-24T15:20:33.928Z,97832.63
2022-10-24T15:23:00.055Z,97824.97
2022-10-24T15:25:26.157Z,97833.06
2022-10-24T15:27:52.264Z,97824.72
2022-10-24T15:30:18.411Z,97831.06
2022-10-24T15:32:44.547Z,97821.75
2022-10-24T15:35:10.655Z,97826.44
2022-10-24T15:37:36.760Z,97836.59
2022-10-24T15:40:02.882Z,97830.19
2022-10-24T15:42:28.979Z,97832.13
2022-10-24T15:44:55.053Z,97837.31
2022-10-24T15:47:21.173Z,97834.97
2022-10-24T15:49:47.252Z,97838.63
2022-10-24T15:52:13.358Z,97838.19
2022-10-24T15:54:39.956Z,97839.47
2022-10-24T15:57:06.048Z,97837.84
2022-10-24T15:59:32.133Z,97838.25
2022-10-24T16:01:58.265Z,97821.50
2022-10-24T16:04:24.608Z,97844.69
2022-10-24T16:06:50.782Z,97841.00
2022-10-24T16:09:16.891Z,97841.41
2022-10-24T16:11:42.980Z,97834.25
2022-10-24T16:14:09.083Z,97841.06
2022-10-24T16:16:35.249Z,97848.66
2022-10-24T16:19:01.333Z,97840.66
2022-10-24T16:21:27.453Z,97853.19
2022-10-24T16:23:53.623Z,97846.59
2022-10-24T16:26:19.733Z,97863.25
2022-10-24T16:28:45.822Z,97849.72
2022-10-24T16:31:11.920Z,97844.56
2022-10-24T16:33:38.012Z,97845.44
2022-10-24T16:36:04.092Z,97857.31
2022-10-24T16:38:30.197Z,97862.66
2022-10-24T16:40:56.285Z,97819.97
2022-10-24T16:43:22.488Z,97861.09
2022-10-24T16:45:50.950Z,97854.94
2022-10-24T16:48:17.045Z,97854.16
2022-10-24T16:50:43.139Z,97849.66
2022-10-24T16:53:09.266Z,97864.50
2022-10-24T16:55:35.354Z,97875.97
2022-10-24T16:58:01.449Z,97878.03
2022-10-24T17:00:27.573Z,97882.34
2022-10-24T17:02:53.739Z,97878.84
2022-10-24T17:05:19.827Z,97889.38
2022-10-24T17:07:46.127Z,97893.28
2022-10-24T17:10:12.342Z,97897.19
2022-10-24T17:12:38.454Z,97881.38
2022-10-24T17:15:04.591Z,97896.59
2022-10-24T17:17:30.709Z,97900.88
2022-10-24T17:19:56.919Z,97898.25
2022-10-24T17:22:23.118Z,97900.53
2022-10-24T17:24:49.212Z,97905.69
2022-10-24T17:27:15.297Z,97907.97
2022-10-24T17:29:41.435Z,97910.44
2022-10-24T17:32:07.534Z,97910.25
2022-10-24T17:34:33.631Z,97918.88
2022-10-24T17:36:59.740Z,97911.47
2022-10-24T17:39:25.907Z,97919.50
2022-10-24T17:41:52.107Z,97924.22
2022-10-24T17:44:18.241Z,97920.53
2022-10-24T17:46:44.334Z,97923.41
2022-10-24T17:49:10.465Z,97911.47
2022-10-24T17:51:36.606Z,97922.78
2022-10-24T17:54:02.712Z,97927.91
2022-10-24T17:56:28.809Z,97925.84
2022-10-24T17:58:54.934Z,97929.53
2022-10-24T18:01:21.099Z,97918.88
2022-10-24T18:03:47.284Z,97925.25
2022-10-24T18:06:13.425Z,97909.63
2022-10-24T18:08:39.524Z,97923.81
2022-10-24T18:11:05.638Z,97918.84
2022-10-24T18:13:31.815Z,97916.63
2022-10-24T18:15:57.910Z,97912.72
2022-10-24T18:18:24.011Z,97920.72
2022-10-24T18:20:50.144Z,97920.91
2022-10-24T18:23:16.685Z,97933.88
2022-10-24T18:25:42.850Z,97926.69
2022-10-24T18:28:09.226Z,97938.97
2022-10-24T18:30:35.382Z,97960.53
2022-10-24T18:33:01.604Z,97987.41
2022-10-24T18:35:27.700Z,98021.94
2022-10-24T18:37:53.796Z,98050.63
2022-10-24T18:40:20.000Z,98053.44
2022-10-24T18:42:46.398Z,98101.38
2022-10-24T18:45:12.850Z,98056.59
2022-10-24T18:47:39.219Z,98041.56
2022-10-24T18:50:05.348Z,98025.03
2022-10-24T18:52:31.432Z,98023.75
2022-10-24T18:54:57.664Z,98012.47
2022-10-24T18:57:23.784Z,98018.91
2022-10-24T18:59:49.883Z,98024.28
2022-10-24T19:02:16.060Z,98016.81
2022-10-24T19:04:42.220Z,98007.44
2022-10-24T19:07:08.317Z,98003.88
2022-10-24T19:09:34.400Z,98005.06
2022-10-24T19:12:00.528Z,98002.13
2022-10-24T19:14:26.614Z,98006.97
2022-10-24T19:16:52.696Z,98009.19
2022-10-24T19:19:18.810Z,98002.56
2022-10-24T19:21:46.479Z,98002.66
2022-10-24T19:24:15.163Z,98003.13
2022-10-24T19:26:41.577Z,98003.66
2022-10-24T19:29:07.661Z,98004.50
2022-10-24T19:31:33.742Z,97973.16
2022-10-24T19:33:59.862Z,98006.31
2022-10-24T19:38:53.011Z,98052.19
2022-10-24T19:41:19.198Z,98014.50
2022-10-24T19:43:45.281Z,98001.84
2022-10-24T19:46:20.126Z,97996.88
2022-10-24T19:48:46.557Z,97979.41
2022-10-24T19:51:12.642Z,97973.97
2022-10-24T19:53:38.743Z,97976.78
2022-10-24T19:56:04.850Z,97976.50
2022-10-24T19:58:30.955Z,97972.47
2022-10-24T20:00:57.082Z,97975.41
2022-10-24T20:03:23.332Z,97962.75
2022-10-24T20:05:49.421Z,97967.56
2022-10-24T20:08:15.508Z,97962.88
2022-10-24T20:10:41.612Z,97966.28
2022-10-24T20:13:07.700Z,97974.75
2022-10-24T20:15:33.799Z,97958.47
2022-10-24T20:17:59.918Z,97973.63
2022-10-24T20:20:26.011Z,97972.91
2022-10-24T20:22:52.094Z,97980.28
2022-10-24T20:25:18.232Z,97986.03
2022-10-24T20:27:44.614Z,97982.66
2022-10-24T20:30:10.912Z,97993.44
2022-10-24T20:32:37.059Z,97987.03
2022-10-24T20:35:03.157Z,97988.88
2022-10-24T20:37:29.260Z,97993.22
2022-10-24T20:39:55.380Z,97986.91
2022-10-24T20:42:21.471Z,97998.97
2022-10-24T20:44:47.586Z,97997.16
2022-10-24T20:47:13.710Z,98004.75
2022-10-24T20:49:39.800Z,97997.84
2022-10-24T20:52:05.947Z,98000.94
2022-10-24T20:54:32.081Z,97999.75
2022-10-24T20:56:58.165Z,98002.25
2022-10-24T20:59:24.260Z,98006.13
2022-10-24T21:01:50.513Z,98012.25
2022-10-24T21:04:19.936Z,98006.56
2022-10-24T21:06:47.073Z,98008.03
2022-10-24T21:09:13.178Z,98043.16
2022-10-24T21:11:39.265Z,98016.09
2022-10-24T21:14:05.354Z,98037.34
2022-10-24T21:16:31.469Z,98047.47
2022-10-24T21:18:57.547Z,98075.72
2022-10-24T21:21:23.641Z,98070.50
2022-10-24T21:23:49.809Z,98055.56
2022-10-24T21:26:15.929Z,98071.88
2022-10-24T21:28:42.020Z,98070.84
2022-10-24T21:31:08.139Z,98064.28
2022-10-24T21:33:34.337Z,98063.72
2022-10-24T21:36:00.431Z,98056.00
2022-10-24T21:38:26.532Z,98061.19
2022-10-24T21:40:52.615Z,98064.56
2022-10-24T21:43:18.718Z,98071.50
2022-10-24T21:45:44.882Z,98065.75
2022-10-24T21:48:10.984Z,98063.75
2022-10-24T21:50:37.143Z,98074.16
2022-10-24T21:53:03.322Z,98077.69
2022-10-24T21:55:29.414Z,98084.22
2022-10-24T21:57:55.497Z,98083.41
2022-10-24T22:00:21.611Z,98083.41
2022-10-24T22:02:47.984Z,98092.97
2022-10-24T22:05:14.324Z,98091.94
2022-10-24T22:07:40.436Z,98093.97
2022-10-24T22:10:06.526Z,98082.09
2022-10-24T22:12:32.611Z,98088.59
2022-10-24T22:14:58.725Z,98090.16
2022-10-24T22:17:24.813Z,98094.72
2022-10-24T22:19:50.905Z,98101.66
2022-10-24T22:22:17.040Z,98098.59
2022-10-24T22:24:43.131Z,98100.13
2022-10-24T22:27:09.224Z,98103.66
2022-10-24T22:29:35.336Z,98092.94
2022-10-24T22:32:01.448Z,98092.38
2022-10-24T22:34:27.533Z,98097.94
2022-10-24T22:36:54.121Z,98102.38
2022-10-24T22:39:20.216Z,98096.59
2022-10-24T22:41:46.310Z,98099.97
2022-10-24T22:44:12.427Z,98101.41
2022-10-24T22:46:38.526Z,98107.53
2022-10-24T22:49:04.708Z,98112.31
2022-10-24T22:51:30.851Z,98102.94
2022-10-24T22:53:56.976Z,98111.31
2022-10-24T22:56:23.096Z,98112.38
2022-10-24T22:58:49.233Z,98114.59
2022-10-24T23:01:15.426Z,98115.03
2022-10-24T23:03:41.583Z,98122.63
2022-10-24T23:06:07.705Z,98118.16
2022-10-24T23:08:33.812Z,98117.75
2022-10-24T23:10:59.897Z,98128.41
2022-10-24T23:13:26.000Z,98125.09
2022-10-24T23:15:52.082Z,98122.53
2022-10-24T23:18:18.390Z,98112.31
2022-10-24T23:20:45.005Z,98140.03
2022-10-24T23:23:24.267Z,98125.03
2022-10-24T23:25:54.670Z,98135.09
2022-10-24T23:28:20.762Z,98137.38
2022-10-24T23:30:46.866Z,98133.50
2022-10-24T23:33:12.964Z,98145.59
2022-10-24T23:35:39.054Z,98137.44
2022-10-24T23:38:05.145Z,98133.97
2022-10-24T23:40:31.600Z,98141.56
2022-10-24T23:42:57.699Z,98130.91
2022-10-24T23:45:23.815Z,98138.31
2022-10-24T23:47:49.927Z,98137.50
2022-10-24T23:50:16.016Z,98143.47
2022-10-24T23:52:42.120Z,98141.63
2022-10-24T23:55:08.302Z,98144.91
2022-10-24T23:57:34.393Z,98149.19
